Hlavní strana
METAR-TAF:

METAR-TAF

Letiště :

Hasvik, Norsko

zeměpisná šířka: 70-29N, zeměpisná délka: 022-09E, výška: 10 m

Aktuální stav počasí

Zpráva byla vytvořena před 1 hodinou a 43 minutami, v 13:50 UTC
Východní vítr 14 kt
Teplota 12°C
Vlhkost vzduchu 76%
Tlak 1011 hPa
Viditelnost 10 km a více
Skoro jasno ve výšce 2500 ft
Oblačno až skoro zataženo ve výšce 9000 ft

METAR: ENHK 251350Z 10014KT 9999 FEW025 BKN090 12/08 Q1011

Čas: 17:33 (15:33 UTC)


TAF: chybějící

Stav a předpovědi počasí z více než 4 000 letišť (zprávy METAR a TAF).

Červené a žluté tečky na mapě představují dostupné meteorologické stanice.

Když kurzor umístíte na tečku, zobrazí se název stanice.

Pak kliknutím zobrazíte stav a předpověď počasí.

Chcete-li změnit mapu, kliknutím na zelené tlačítko se znaménkem +mapu přiblížíte, kliknutím na zelené tlačítko se znaménkem – mapu oddálíte a kliknutím na zelené šipky přejdete na sousední mapy.


METAR-TAF: